createdAt,value
2023-01-18T00:01:02.111Z,86.60
2023-01-18T00:03:33.233Z,86.50
2023-01-18T00:06:06.960Z,86.60
2023-01-18T00:08:35.931Z,86.50
2023-01-18T00:11:06.200Z,86.60
2023-01-18T00:13:34.678Z,86.60
2023-01-18T00:16:06.173Z,86.60
2023-01-18T00:18:35.959Z,86.70
2023-01-18T00:21:04.591Z,86.70
2023-01-18T00:23:33.029Z,86.60
2023-01-18T00:26:03.947Z,86.60
2023-01-18T00:28:33.759Z,86.70
2023-01-18T00:31:02.207Z,86.70
2023-01-18T00:33:30.556Z,86.70
2023-01-18T00:35:59.327Z,86.70
2023-01-18T00:38:29.956Z,86.70
2023-01-18T00:40:58.350Z,86.80
2023-01-18T00:43:41.014Z,86.70
2023-01-18T00:46:11.530Z,86.80
2023-01-18T00:48:40.209Z,86.80
2023-01-18T00:51:09.175Z,86.80
2023-01-18T00:53:40.899Z,86.80
2023-01-18T00:56:11.166Z,86.80
2023-01-18T00:58:39.461Z,86.90
2023-01-18T01:01:08.074Z,86.80
2023-01-18T01:03:58.169Z,86.80
2023-01-18T01:06:46.974Z,86.80
2023-01-18T01:09:17.321Z,86.90
2023-01-18T01:12:06.189Z,86.90
2023-01-18T01:14:52.469Z,86.90
2023-01-18T01:17:38.411Z,86.90
2023-01-18T01:20:27.347Z,86.80
2023-01-18T01:23:13.417Z,86.90
2023-01-18T01:25:59.354Z,87.60
2023-01-18T01:28:27.699Z,86.90
2023-01-18T01:31:02.988Z,86.90
2023-01-18T01:33:33.191Z,86.90
2023-01-18T01:36:03.894Z,86.90
2023-01-18T01:38:33.437Z,87.00
2023-01-18T01:41:02.670Z,86.90
2023-01-18T01:43:39.119Z,86.90
2023-01-18T01:46:13.836Z,86.90
2023-01-18T01:48:42.161Z,86.90
2023-01-18T01:51:11.941Z,87.00
2023-01-18T01:53:40.280Z,86.90
2023-01-18T01:56:08.672Z,87.00
2023-01-18T01:58:38.367Z,86.90
2023-01-18T02:01:09.150Z,86.90
2023-01-18T02:03:38.169Z,87.00
2023-01-18T02:06:09.570Z,86.90
2023-01-18T02:08:39.219Z,87.00
2023-01-18T02:11:07.574Z,87.00
2023-01-18T02:13:35.892Z,87.00
2023-01-18T02:16:10.556Z,87.80
2023-01-18T02:18:41.055Z,87.00
2023-01-18T02:21:14.374Z,87.00
2023-01-18T02:24:22.910Z,87.00
2023-01-18T02:27:00.747Z,87.00
2023-01-18T02:29:39.665Z,87.00
2023-01-18T02:32:14.962Z,87.00
2023-01-18T02:34:46.777Z,87.00
2023-01-18T02:37:23.092Z,87.00
2023-01-18T02:39:56.422Z,87.00
2023-01-18T02:42:43.061Z,87.00
2023-01-18T02:45:34.306Z,87.10
2023-01-18T02:48:06.455Z,87.00
2023-01-18T02:50:36.265Z,87.00
2023-01-18T02:53:04.859Z,87.80
2023-01-18T02:55:37.988Z,87.00
2023-01-18T02:58:09.418Z,87.00
2023-01-18T03:00:42.811Z,87.00
2023-01-18T03:03:11.398Z,87.10
2023-01-18T03:05:39.704Z,87.00
2023-01-18T03:08:10.601Z,87.00
2023-01-18T03:10:55.483Z,87.00
2023-01-18T03:13:26.888Z,87.00
2023-01-18T03:15:58.048Z,87.00
2023-01-18T03:18:30.816Z,87.00
2023-01-18T03:21:01.273Z,87.10
2023-01-18T03:23:38.103Z,87.10
2023-01-18T03:26:07.407Z,87.10
2023-01-18T03:28:53.823Z,87.10
2023-01-18T03:31:45.515Z,87.10
2023-01-18T03:34:18.647Z,87.10
2023-01-18T03:36:48.052Z,87.10
2023-01-18T03:39:18.974Z,87.10
2023-01-18T03:41:49.415Z,87.00
2023-01-18T03:44:19.568Z,87.10
2023-01-18T03:46:51.675Z,87.10
2023-01-18T03:49:20.025Z,87.00
2023-01-18T03:51:55.958Z,87.10
2023-01-18T03:54:39.394Z,87.10
2023-01-18T03:57:09.750Z,87.00
2023-01-18T03:59:41.798Z,87.00
2023-01-18T04:02:13.722Z,87.00
2023-01-18T04:04:42.003Z,87.10
2023-01-18T04:07:10.422Z,87.10
2023-01-18T04:09:41.290Z,87.10
2023-01-18T04:12:09.654Z,87.10
2023-01-18T04:14:38.094Z,87.10
2023-01-18T04:17:06.450Z,87.10
2023-01-18T04:19:36.165Z,87.10
2023-01-18T04:22:04.543Z,87.90
2023-01-18T04:24:32.896Z,87.10
2023-01-18T04:27:01.274Z,87.10
2023-01-18T04:29:29.638Z,87.10
2023-01-18T04:31:57.984Z,87.10
2023-01-18T04:34:27.382Z,87.10
2023-01-18T04:36:59.799Z,87.10
2023-01-18T04:39:28.176Z,87.10
2023-01-18T04:41:57.338Z,87.10
2023-01-18T04:44:25.797Z,87.10
2023-01-18T04:46:54.141Z,87.10
2023-01-18T04:49:22.527Z,87.10
2023-01-18T04:51:50.806Z,87.20
2023-01-18T04:54:20.495Z,87.10
2023-01-18T04:56:50.238Z,87.10
2023-01-18T04:59:21.424Z,87.20
2023-01-18T05:01:49.751Z,87.10
2023-01-18T05:04:18.461Z,87.10
2023-01-18T05:06:52.186Z,87.20
2023-01-18T05:09:21.851Z,87.10
2023-01-18T05:11:50.179Z,87.10
2023-01-18T05:14:18.609Z,87.10
2023-01-18T05:16:49.876Z,87.20
2023-01-18T05:19:20.626Z,87.20
2023-01-18T05:21:48.975Z,87.10
2023-01-18T05:24:17.398Z,87.20
2023-01-18T05:26:47.035Z,87.20
2023-01-18T05:29:18.588Z,87.20
2023-01-18T05:31:49.108Z,87.20
2023-01-18T05:34:20.671Z,87.20
2023-01-18T05:36:50.521Z,87.20
2023-01-18T05:39:18.904Z,87.20
2023-01-18T05:41:48.601Z,87.20
2023-01-18T05:44:17.010Z,87.20
2023-01-18T05:46:45.376Z,87.20
2023-01-18T05:49:15.289Z,87.20
2023-01-18T05:51:43.660Z,87.20
2023-01-18T05:54:12.954Z,87.20
2023-01-18T05:56:42.118Z,87.30
2023-01-18T05:59:15.953Z,87.20
2023-01-18T06:01:44.330Z,87.30
2023-01-18T06:04:14.281Z,87.30
2023-01-18T06:06:42.594Z,87.20
2023-01-18T06:09:13.981Z,87.20
2023-01-18T06:11:42.313Z,87.20
2023-01-18T06:14:12.019Z,87.20
2023-01-18T06:16:43.457Z,87.20
2023-01-18T06:19:14.259Z,87.20
2023-01-18T06:21:48.754Z,87.30
2023-01-18T06:24:17.081Z,87.20
2023-01-18T06:26:45.447Z,87.20
2023-01-18T06:29:17.921Z,87.20
2023-01-18T06:31:46.326Z,87.20
2023-01-18T06:34:14.730Z,87.30
2023-01-18T06:36:45.074Z,87.30
2023-01-18T06:39:13.555Z,87.30
2023-01-18T06:41:41.870Z,87.30
2023-01-18T06:44:10.337Z,87.30
2023-01-18T06:46:40.035Z,87.40
2023-01-18T06:49:08.475Z,87.40
2023-01-18T06:51:36.854Z,87.50
2023-01-18T06:54:08.499Z,87.50
2023-01-18T06:56:39.920Z,87.60
2023-01-18T06:59:08.854Z,87.60
2023-01-18T07:01:37.470Z,87.70
2023-01-18T07:04:07.512Z,88.50
2023-01-18T07:06:36.812Z,87.90
2023-01-18T07:09:07.615Z,87.90
2023-01-18T07:11:36.949Z,87.90
2023-01-18T07:14:05.266Z,88.00
2023-01-18T07:16:37.789Z,88.00
2023-01-18T07:19:07.570Z,88.10
2023-01-18T07:21:39.623Z,88.30
2023-01-18T07:24:08.296Z,88.30
2023-01-18T07:26:39.523Z,88.10
2023-01-18T07:29:09.072Z,87.80
2023-01-18T07:31:38.508Z,87.70
2023-01-18T07:34:09.612Z,87.60
2023-01-18T07:36:41.837Z,87.60
2023-01-18T07:39:10.457Z,87.60
2023-01-18T07:41:38.977Z,87.60
2023-01-18T07:44:09.694Z,87.60
2023-01-18T07:46:38.366Z,87.60
2023-01-18T07:49:08.231Z,87.60
2023-01-18T07:51:39.315Z,87.80
2023-01-18T07:54:10.711Z,87.70
2023-01-18T07:56:42.381Z,87.30
2023-01-18T07:59:13.458Z,87.20
2023-01-18T08:01:41.885Z,87.30
2023-01-18T08:04:13.800Z,87.30
2023-01-18T08:06:43.682Z,87.10
2023-01-18T08:09:11.969Z,87.00
2023-01-18T08:11:40.264Z,87.00
2023-01-18T08:14:12.258Z,86.90
2023-01-18T08:16:40.635Z,87.00
2023-01-18T08:19:09.176Z,86.90
2023-01-18T08:21:38.890Z,86.80
2023-01-18T08:24:09.655Z,86.80
2023-01-18T08:26:38.012Z,86.70
2023-01-18T08:29:06.323Z,86.70
2023-01-18T08:31:37.715Z,86.80
2023-01-18T08:34:06.353Z,86.60
2023-01-18T08:36:37.496Z,86.60
2023-01-18T08:39:07.153Z,86.50
2023-01-18T08:41:35.465Z,86.60
2023-01-18T08:44:03.780Z,86.60
2023-01-18T08:46:34.815Z,86.50
2023-01-18T08:49:05.745Z,86.50
2023-01-18T08:51:34.065Z,86.40
2023-01-18T08:54:02.383Z,86.50
2023-01-18T08:56:33.912Z,86.40
2023-01-18T08:59:06.985Z,86.40
2023-01-18T09:01:35.395Z,86.30
2023-01-18T09:04:03.779Z,86.30
2023-01-18T09:06:33.842Z,86.20
2023-01-18T09:09:05.372Z,86.20
2023-01-18T09:11:35.045Z,86.30
2023-01-18T09:14:03.332Z,86.60
2023-01-18T09:16:31.881Z,87.50
2023-01-18T09:19:00.363Z,88.70
2023-01-18T09:21:32.400Z,89.50
2023-01-18T09:24:00.769Z,90.10
2023-01-18T09:26:30.422Z,90.40
2023-01-18T09:29:00.505Z,90.30
2023-01-18T09:31:29.443Z,90.40
2023-01-18T09:34:18.049Z,90.30
2023-01-18T09:36:48.138Z,90.20
2023-01-18T09:39:16.467Z,90.10
2023-01-18T09:41:46.949Z,90.00
2023-01-18T09:44:20.508Z,90.00
2023-01-18T09:46:53.332Z,89.90
2023-01-18T09:49:24.846Z,89.80
2023-01-18T09:51:58.073Z,89.70
2023-01-18T09:54:32.710Z,89.70
2023-01-18T09:57:04.734Z,89.70
2023-01-18T09:59:35.583Z,89.60
2023-01-18T10:02:10.886Z,89.50
2023-01-18T10:04:41.262Z,89.50
2023-01-18T10:07:13.033Z,89.50
2023-01-18T10:09:42.850Z,89.50
2023-01-18T10:12:18.768Z,89.30
2023-01-18T10:14:54.004Z,89.30
2023-01-18T10:17:24.249Z,89.20
2023-01-18T10:19:54.973Z,89.20
2023-01-18T10:22:24.213Z,89.90
2023-01-18T10:24:57.693Z,89.20
2023-01-18T10:27:44.467Z,89.10
2023-01-18T10:30:23.677Z,89.00
2023-01-18T10:32:55.076Z,89.00
2023-01-18T10:35:29.698Z,89.00
2023-01-18T10:37:59.064Z,88.90
2023-01-18T10:40:27.647Z,88.90
2023-01-18T10:42:57.755Z,88.90
2023-01-18T10:45:28.914Z,88.90
2023-01-18T10:47:58.263Z,88.90
2023-01-18T10:50:35.412Z,88.80
2023-01-18T10:53:20.443Z,88.70
2023-01-18T10:55:53.730Z,88.60
2023-01-18T10:58:25.984Z,88.60
2023-01-18T11:00:56.724Z,88.70
2023-01-18T11:03:26.245Z,88.60
2023-01-18T11:05:56.619Z,88.60
2023-01-18T11:08:26.275Z,88.50
2023-01-18T11:10:59.937Z,88.60
2023-01-18T11:13:31.159Z,88.50
2023-01-18T11:16:15.717Z,88.50
2023-01-18T11:19:00.437Z,88.60
2023-01-18T11:21:33.623Z,88.60
2023-01-18T11:24:07.734Z,88.50
2023-01-18T11:26:36.518Z,88.60
2023-01-18T11:29:07.730Z,88.30
2023-01-18T11:31:47.871Z,88.30
2023-01-18T11:34:27.748Z,87.50
2023-01-18T11:36:58.070Z,87.50
2023-01-18T11:39:29.298Z,87.60
2023-01-18T11:42:25.717Z,87.70
2023-01-18T11:45:16.779Z,87.40
2023-01-18T11:47:59.195Z,87.40
2023-01-18T11:50:32.604Z,87.30
2023-01-18T11:53:06.269Z,87.10
2023-01-18T11:55:38.072Z,87.30
2023-01-18T11:58:22.916Z,87.50
2023-01-18T12:00:55.496Z,87.50
2023-01-18T12:03:38.287Z,87.20
2023-01-18T12:06:10.595Z,86.80
2023-01-18T12:08:50.791Z,86.70
2023-01-18T12:11:27.451Z,86.70
2023-01-18T12:14:01.039Z,86.60
2023-01-18T12:16:43.081Z,86.80
2023-01-18T12:19:24.224Z,87.00
2023-01-18T12:22:08.576Z,87.30
2023-01-18T12:24:46.579Z,87.50
2023-01-18T12:27:19.397Z,87.50
2023-01-18T12:30:17.688Z,87.00
2023-01-18T12:32:58.053Z,86.90
2023-01-18T12:35:39.779Z,86.80
2023-01-18T12:38:13.975Z,86.80
2023-01-18T12:40:51.068Z,86.90
2023-01-18T12:43:24.866Z,87.00
2023-01-18T12:45:56.703Z,87.10
2023-01-18T12:48:27.619Z,87.10
2023-01-18T12:50:57.892Z,87.20
2023-01-18T12:53:33.017Z,87.20
2023-01-18T12:56:04.158Z,87.10
2023-01-18T12:58:32.942Z,87.10
2023-01-18T13:01:05.263Z,87.10
2023-01-18T13:03:38.636Z,87.20
2023-01-18T13:06:10.696Z,87.10
2023-01-18T13:08:42.076Z,87.10
2023-01-18T13:11:14.269Z,87.10
2023-01-18T13:13:45.292Z,87.10
2023-01-18T13:16:19.995Z,87.00
2023-01-18T13:18:53.056Z,87.20
2023-01-18T13:21:29.191Z,87.20
2023-01-18T13:24:05.018Z,87.20
2023-01-18T13:26:34.700Z,87.10
2023-01-18T13:29:16.636Z,87.30
2023-01-18T13:31:46.111Z,87.20
2023-01-18T13:34:25.807Z,87.40
2023-01-18T13:37:12.900Z,87.40
2023-01-18T13:39:46.251Z,87.40
2023-01-18T13:42:35.183Z,87.50
2023-01-18T13:45:17.252Z,87.70
2023-01-18T13:47:54.235Z,87.70
2023-01-18T13:50:43.009Z,87.80
2023-01-18T13:53:31.566Z,87.80
2023-01-18T13:56:28.360Z,87.80
2023-01-18T13:58:59.432Z,87.80
2023-01-18T14:01:33.050Z,87.80
2023-01-18T14:04:17.747Z,87.90
2023-01-18T14:06:46.852Z,87.90
2023-01-18T14:09:18.483Z,87.90
2023-01-18T14:11:52.338Z,88.30
2023-01-18T14:14:29.747Z,88.20
2023-01-18T14:17:07.584Z,87.90
2023-01-18T14:19:58.052Z,87.80
2023-01-18T14:22:45.421Z,87.80
2023-01-18T14:25:39.229Z,87.90
2023-01-18T14:28:11.007Z,87.90
2023-01-18T14:30:41.054Z,88.00
2023-01-18T14:33:15.469Z,88.00
2023-01-18T14:35:52.010Z,88.00
2023-01-18T14:38:20.537Z,87.80
2023-01-18T14:40:51.360Z,87.10
2023-01-18T14:43:24.589Z,87.20
2023-01-18T14:45:55.778Z,87.20
2023-01-18T14:48:25.104Z,87.30
2023-01-18T14:50:54.545Z,87.50
2023-01-18T14:53:24.984Z,87.70
2023-01-18T14:56:07.052Z,87.70
2023-01-18T14:58:37.935Z,87.90
2023-01-18T15:01:09.528Z,87.90
2023-01-18T15:03:38.139Z,88.00
2023-01-18T15:06:13.112Z,88.20
2023-01-18T15:08:42.112Z,88.20
2023-01-18T15:11:12.079Z,88.30
2023-01-18T15:13:47.545Z,88.30
2023-01-18T15:16:18.042Z,88.40
2023-01-18T15:18:47.715Z,89.20
2023-01-18T15:21:18.690Z,88.10
2023-01-18T15:23:47.236Z,88.10
2023-01-18T15:26:17.110Z,88.10
2023-01-18T15:28:45.609Z,88.10
2023-01-18T15:31:15.752Z,88.10
2023-01-18T15:33:44.823Z,88.20
2023-01-18T15:36:14.194Z,88.30
2023-01-18T15:38:42.859Z,88.20
2023-01-18T15:41:12.987Z,88.20
2023-01-18T15:43:43.865Z,88.20
2023-01-18T15:46:14.059Z,88.10
2023-01-18T15:48:48.715Z,88.20
2023-01-18T15:51:17.196Z,88.30
2023-01-18T15:53:49.128Z,88.30
2023-01-18T15:56:18.153Z,88.40
2023-01-18T15:58:50.006Z,88.30
2023-01-18T16:01:20.648Z,88.30
2023-01-18T16:03:57.805Z,88.40
2023-01-18T16:06:37.571Z,88.70
2023-01-18T16:09:12.095Z,88.80
2023-01-18T16:11:46.438Z,88.90
2023-01-18T16:14:33.253Z,88.90
2023-01-18T16:17:04.815Z,89.00
2023-01-18T16:19:34.678Z,88.80
2023-01-18T16:22:05.926Z,88.80
2023-01-18T16:24:35.517Z,88.70
2023-01-18T16:27:11.262Z,88.70
2023-01-18T16:29:45.898Z,88.60
2023-01-18T16:32:18.716Z,88.60
2023-01-18T16:34:47.209Z,88.60
2023-01-18T16:37:17.073Z,88.60
2023-01-18T16:39:45.361Z,88.60
2023-01-18T16:42:13.905Z,88.60
2023-01-18T16:44:47.597Z,88.60
2023-01-18T16:47:17.771Z,88.70
2023-01-18T16:49:46.576Z,89.40
2023-01-18T16:52:14.907Z,88.70
2023-01-18T16:54:44.059Z,88.70
2023-01-18T16:57:17.774Z,88.70
2023-01-18T16:59:47.508Z,88.70
2023-01-18T17:02:16.009Z,88.80
2023-01-18T17:04:46.455Z,88.80
2023-01-18T17:07:14.890Z,88.80
2023-01-18T17:09:48.674Z,88.80
2023-01-18T17:12:17.650Z,88.80
2023-01-18T17:14:47.567Z,88.90
2023-01-18T17:17:15.973Z,88.90
2023-01-18T17:19:44.306Z,88.80
2023-01-18T17:22:12.650Z,88.80
2023-01-18T17:24:44.437Z,88.90
2023-01-18T17:27:14.703Z,88.90
2023-01-18T17:29:43.124Z,89.00
2023-01-18T17:32:18.980Z,89.00
2023-01-18T17:34:51.717Z,88.90
2023-01-18T17:37:25.432Z,88.90
2023-01-18T17:40:10.897Z,89.00
2023-01-18T17:42:42.526Z,88.90
2023-01-18T17:45:14.221Z,89.00
2023-01-18T17:47:44.272Z,89.00
2023-01-18T17:50:13.172Z,88.90
2023-01-18T17:52:47.230Z,88.90
2023-01-18T17:55:17.908Z,89.00
2023-01-18T17:57:50.590Z,89.00
2023-01-18T18:00:19.861Z,89.10
2023-01-18T18:02:52.863Z,89.10
2023-01-18T18:05:23.456Z,89.10
2023-01-18T18:07:51.959Z,89.10
2023-01-18T18:10:20.349Z,89.10
2023-01-18T18:12:48.674Z,89.10
2023-01-18T18:15:22.203Z,89.00
2023-01-18T18:17:51.979Z,89.10
2023-01-18T18:20:22.114Z,89.10
2023-01-18T18:22:51.192Z,89.10
2023-01-18T18:25:19.539Z,89.10
2023-01-18T18:27:49.348Z,89.10
2023-01-18T18:30:21.367Z,89.10
2023-01-18T18:32:51.071Z,89.10
2023-01-18T18:35:25.908Z,89.10
2023-01-18T18:38:00.056Z,89.10
2023-01-18T18:40:28.445Z,89.10
2023-01-18T18:43:02.479Z,89.00
2023-01-18T18:45:32.062Z,89.10
2023-01-18T18:48:01.910Z,89.10
2023-01-18T18:50:30.340Z,89.10
2023-01-18T18:52:59.269Z,89.20
2023-01-18T18:55:29.789Z,89.20
2023-01-18T18:57:58.231Z,89.20
2023-01-18T19:00:27.356Z,89.20
2023-01-18T19:03:00.705Z,89.20
2023-01-18T19:05:29.547Z,89.20
2023-01-18T19:07:57.975Z,89.20
2023-01-18T19:10:30.576Z,89.20
2023-01-18T19:12:59.534Z,89.20
2023-01-18T19:15:28.156Z,89.20
2023-01-18T19:17:57.934Z,89.20
2023-01-18T19:20:33.882Z,89.20
2023-01-18T19:23:02.866Z,89.50
2023-01-18T19:25:31.427Z,89.90
2023-01-18T19:28:00.192Z,89.70
2023-01-18T19:30:30.322Z,89.90
2023-01-18T19:32:59.953Z,90.00
2023-01-18T19:35:31.058Z,90.00
2023-01-18T19:38:00.809Z,90.00
2023-01-18T19:40:29.229Z,90.10
2023-01-18T19:42:59.575Z,90.10
2023-01-18T19:45:28.924Z,90.20
2023-01-18T19:47:57.978Z,90.30
2023-01-18T19:50:26.499Z,90.40
2023-01-18T19:52:56.228Z,90.30
2023-01-18T19:55:27.347Z,90.40
2023-01-18T19:57:56.464Z,90.50
2023-01-18T20:00:27.032Z,90.50
2023-01-18T20:02:55.429Z,90.50
2023-01-18T20:05:23.802Z,90.50
2023-01-18T20:07:52.307Z,90.60
2023-01-18T20:10:22.158Z,90.60
2023-01-18T20:12:51.711Z,90.70
2023-01-18T20:15:23.064Z,90.60
2023-01-18T20:17:54.100Z,90.60
2023-01-18T20:20:31.921Z,90.60
2023-01-18T20:23:02.994Z,90.60
2023-01-18T20:25:33.588Z,90.70
2023-01-18T20:28:01.889Z,90.40
2023-01-18T20:30:30.230Z,90.00
2023-01-18T20:32:58.896Z,89.70
2023-01-18T20:35:28.442Z,89.30
2023-01-18T20:37:56.782Z,89.10
2023-01-18T20:40:31.266Z,88.90
2023-01-18T20:43:01.623Z,88.70
2023-01-18T20:45:31.090Z,88.50
2023-01-18T20:48:02.504Z,88.50
2023-01-18T20:50:31.009Z,88.50
2023-01-18T20:52:59.593Z,88.40
2023-01-18T20:55:28.943Z,88.30
2023-01-18T20:58:01.428Z,88.10
2023-01-18T21:00:32.566Z,88.10
2023-01-18T21:03:01.199Z,88.00
2023-01-18T21:05:29.762Z,88.00
2023-01-18T21:07:58.634Z,88.00
2023-01-18T21:10:38.364Z,88.00
2023-01-18T21:13:09.448Z,87.90
2023-01-18T21:15:37.943Z,87.90
2023-01-18T21:18:07.308Z,87.90
2023-01-18T21:20:35.894Z,87.90
2023-01-18T21:23:04.265Z,87.90
2023-01-18T21:25:32.627Z,87.80
2023-01-18T21:28:03.785Z,87.80
2023-01-18T21:30:33.476Z,87.80
2023-01-18T21:33:01.954Z,88.60
2023-01-18T21:35:33.517Z,87.90
2023-01-18T21:38:02.861Z,87.80
2023-01-18T21:40:33.282Z,87.80
2023-01-18T21:43:19.363Z,87.70
2023-01-18T21:45:58.768Z,87.60
2023-01-18T21:48:28.105Z,87.70
2023-01-18T21:51:17.092Z,87.60
2023-01-18T21:54:03.208Z,87.70
2023-01-18T21:56:31.571Z,87.70
2023-01-18T21:59:02.649Z,87.80
2023-01-18T22:01:34.814Z,87.80
2023-01-18T22:04:21.405Z,87.80
2023-01-18T22:06:54.224Z,88.50
2023-01-18T22:09:23.254Z,87.80
2023-01-18T22:11:52.060Z,87.50
2023-01-18T22:14:20.346Z,87.40
2023-01-18T22:16:52.280Z,87.60
2023-01-18T22:19:20.687Z,87.60
2023-01-18T22:21:49.134Z,87.80
2023-01-18T22:24:17.843Z,88.30
2023-01-18T22:26:46.336Z,88.10
2023-01-18T22:29:14.774Z,88.10
2023-01-18T22:31:43.126Z,88.00
2023-01-18T22:34:17.144Z,88.00
2023-01-18T22:36:48.215Z,88.10
2023-01-18T22:39:19.363Z,87.80
2023-01-18T22:41:47.725Z,87.70
2023-01-18T22:44:16.518Z,87.70
2023-01-18T22:46:45.168Z,87.70
2023-01-18T22:49:14.976Z,87.70
2023-01-18T22:51:43.349Z,87.70
2023-01-18T22:54:14.862Z,87.80
2023-01-18T22:56:43.231Z,87.80
2023-01-18T22:59:13.852Z,87.80
2023-01-18T23:01:42.239Z,87.80
2023-01-18T23:04:14.778Z,87.80
2023-01-18T23:06:46.165Z,87.90
2023-01-18T23:09:14.567Z,88.00
2023-01-18T23:11:42.940Z,88.00
2023-01-18T23:14:39.194Z,88.00
2023-01-18T23:17:25.143Z,88.00
2023-01-18T23:19:55.037Z,88.00
2023-01-18T23:22:23.403Z,88.00
2023-01-18T23:24:51.746Z,88.10
2023-01-18T23:27:20.088Z,88.10
2023-01-18T23:29:51.420Z,88.10
2023-01-18T23:32:19.765Z,88.10
2023-01-18T23:34:48.358Z,88.30
2023-01-18T23:37:18.064Z,88.20
2023-01-18T23:40:04.039Z,88.10
2023-01-18T23:42:50.163Z,88.10
2023-01-18T23:45:36.119Z,88.10
2023-01-18T23:48:26.034Z,88.30
2023-01-18T23:51:12.007Z,88.20
2023-01-18T23:53:59.400Z,88.30
2023-01-18T23:56:28.530Z,88.30
2023-01-18T23:58:57.434Z,88.40
